createdAt,value
2022-10-15T00:01:27.440Z,100746.50
2022-10-15T00:03:55.223Z,100770.06
2022-10-15T00:06:23.052Z,100754.25
2022-10-15T00:08:50.613Z,100770.22
2022-10-15T00:11:27.215Z,100774.41
2022-10-15T00:13:57.686Z,100748.25
2022-10-15T00:16:28.147Z,100769.25
2022-10-15T00:18:57.324Z,100793.03
2022-10-15T00:21:25.514Z,100788.97
2022-10-15T00:23:53.500Z,100789.28
2022-10-15T00:26:27.527Z,100789.63
2022-10-15T00:28:58.040Z,100786.41
2022-10-15T00:31:28.448Z,100780.44
2022-10-15T00:33:58.869Z,100780.44
2022-10-15T00:36:29.266Z,100780.09
2022-10-15T00:38:57.350Z,100779.59
2022-10-15T00:41:29.631Z,100776.56
2022-10-15T00:44:03.136Z,100773.28
2022-10-15T00:46:36.074Z,100778.16
2022-10-15T00:49:29.893Z,100777.34
2022-10-15T00:52:26.366Z,100771.69
2022-10-15T00:54:59.837Z,100771.88
2022-10-15T00:57:28.249Z,100762.50
2022-10-15T01:00:00.919Z,100769.13
2022-10-15T01:02:28.580Z,100776.56
2022-10-15T01:04:56.359Z,100760.56
2022-10-15T01:07:25.044Z,100765.56
2022-10-15T01:09:53.060Z,100742.75
2022-10-15T01:12:34.278Z,100767.00
2022-10-15T01:15:12.381Z,100767.00
2022-10-15T01:17:52.200Z,100740.34
2022-10-15T01:20:47.174Z,100738.41
2022-10-15T01:23:30.888Z,100746.50
2022-10-15T01:26:32.147Z,100749.91
2022-10-15T01:29:31.215Z,100743.91
2022-10-15T01:32:22.562Z,100746.97
2022-10-15T01:34:58.388Z,100737.94
2022-10-15T01:37:44.913Z,100697.41
2022-10-15T01:40:37.711Z,100719.84
2022-10-15T01:43:12.475Z,100724.88
2022-10-15T01:45:54.702Z,100721.00
2022-10-15T01:48:50.080Z,100675.91
2022-10-15T01:51:20.716Z,100680.25
2022-10-15T01:53:51.065Z,100700.47
2022-10-15T01:56:24.076Z,100712.91
2022-10-15T01:58:55.599Z,100708.53
2022-10-15T02:01:23.719Z,100699.84
2022-10-15T02:03:53.006Z,100699.66
2022-10-15T02:06:30.835Z,100696.09
2022-10-15T02:09:21.423Z,100647.00
2022-10-15T02:12:14.206Z,100688.19
2022-10-15T02:14:46.530Z,100687.06
2022-10-15T02:17:16.778Z,100684.81
2022-10-15T02:22:35.903Z,100649.63
2022-10-15T02:25:16.577Z,100671.09
2022-10-15T02:27:48.594Z,100669.66
2022-10-15T02:30:17.402Z,100620.06
2022-10-15T02:32:49.567Z,100674.16
2022-10-15T02:35:23.956Z,100614.41
2022-10-15T02:37:54.531Z,100670.13
2022-10-15T02:40:28.001Z,100671.25
2022-10-15T02:42:56.413Z,100624.94
2022-10-15T02:45:24.085Z,100618.28
2022-10-15T02:47:52.790Z,100607.13
2022-10-15T02:50:20.487Z,100609.56
2022-10-15T02:52:48.112Z,100627.69
2022-10-15T02:55:16.454Z,100635.09
2022-10-15T02:57:44.195Z,100651.09
2022-10-15T03:00:12.748Z,100647.03
2022-10-15T03:02:41.407Z,100599.72
2022-10-15T03:05:09.693Z,100618.66
2022-10-15T03:07:38.040Z,100627.03
2022-10-15T03:10:06.978Z,100619.13
2022-10-15T03:12:36.144Z,100636.06
2022-10-15T03:15:06.186Z,100601.66
2022-10-15T03:17:34.770Z,100635.91
2022-10-15T03:20:02.863Z,100614.91
2022-10-15T03:22:32.446Z,100613.28
2022-10-15T03:25:00.684Z,100634.78
2022-10-15T03:27:29.242Z,100626.06
2022-10-15T03:29:57.643Z,100599.56
2022-10-15T03:32:29.196Z,100634.28
2022-10-15T03:34:58.806Z,100588.13
2022-10-15T03:37:26.485Z,100633.16
2022-10-15T03:39:56.061Z,100632.69
2022-10-15T03:42:24.113Z,100635.72
2022-10-15T03:44:52.216Z,100641.22
2022-10-15T03:47:20.951Z,100634.59
2022-10-15T03:49:50.146Z,100604.59
2022-10-15T03:52:18.075Z,100613.16
2022-10-15T03:54:47.350Z,100617.34
2022-10-15T03:57:17.691Z,100622.19
2022-10-15T03:59:56.543Z,100624.75
2022-10-15T04:02:27.397Z,100624.75
2022-10-15T04:04:58.138Z,100510.34
2022-10-15T04:07:26.287Z,100598.09
2022-10-15T04:09:54.056Z,100585.53
2022-10-15T04:12:29.168Z,100620.72
2022-10-15T04:14:57.391Z,100613.31
2022-10-15T04:17:25.174Z,100616.53
2022-10-15T04:19:52.833Z,100571.66
2022-10-15T04:22:21.885Z,100594.56
2022-10-15T04:24:54.063Z,100544.88
2022-10-15T04:27:27.372Z,100619.94
2022-10-15T04:30:02.900Z,100559.22
2022-10-15T04:32:31.143Z,100569.72
2022-10-15T04:34:58.881Z,100615.25
2022-10-15T04:37:45.253Z,100617.03
2022-10-15T04:40:13.496Z,100618.47
2022-10-15T04:42:41.314Z,100597.78
2022-10-15T04:45:09.697Z,100608.28
2022-10-15T04:47:38.515Z,100627.50
2022-10-15T04:50:10.127Z,100569.53
2022-10-15T04:52:56.486Z,100612.84
2022-10-15T04:55:25.691Z,100622.19
2022-10-15T04:57:58.147Z,100606.00
2022-10-15T05:00:30.237Z,100610.56
2022-10-15T05:03:16.534Z,100621.06
2022-10-15T05:06:01.906Z,100619.13
2022-10-15T05:08:31.281Z,100593.41
2022-10-15T05:11:23.769Z,100617.84
2022-10-15T05:13:52.088Z,100614.78
2022-10-15T05:16:28.389Z,100614.44
2022-10-15T05:19:00.014Z,100557.94
2022-10-15T05:21:28.370Z,100603.00
2022-10-15T05:24:01.330Z,100611.38
2022-10-15T05:26:47.594Z,100566.81
2022-10-15T05:29:16.360Z,100610.69
2022-10-15T05:31:45.003Z,100620.06
2022-10-15T05:34:19.600Z,100560.38
2022-10-15T05:37:00.796Z,100581.16
2022-10-15T05:39:28.389Z,100593.91
2022-10-15T05:41:56.342Z,100617.03
2022-10-15T05:44:33.138Z,100611.84
2022-10-15T05:47:00.696Z,100612.84
2022-10-15T05:49:28.868Z,100564.06
2022-10-15T05:52:04.427Z,100619.44
2022-10-15T05:54:56.476Z,100613.16
2022-10-15T05:57:24.204Z,100561.66
2022-10-15T05:59:52.017Z,100622.31
2022-10-15T06:02:19.763Z,100569.06
2022-10-15T06:04:48.825Z,100595.84
2022-10-15T06:07:16.687Z,100573.56
2022-10-15T06:09:44.331Z,100610.22
2022-10-15T06:12:12.171Z,100617.63
2022-10-15T06:14:40.043Z,100631.81
2022-10-15T06:17:07.808Z,100574.38
2022-10-15T06:19:35.510Z,100611.81
2022-10-15T06:22:03.033Z,100585.69
2022-10-15T06:24:30.735Z,100610.22
2022-10-15T06:27:00.028Z,100598.91
2022-10-15T06:29:27.652Z,100593.44
2022-10-15T06:31:57.102Z,100582.13
2022-10-15T06:34:24.806Z,100580.66
2022-10-15T06:36:52.492Z,100606.50
2022-10-15T06:39:20.171Z,100633.44
2022-10-15T06:41:48.742Z,100599.56
2022-10-15T06:44:16.448Z,100610.34
2022-10-15T06:46:44.196Z,100578.44
2022-10-15T06:49:12.000Z,100636.38
2022-10-15T06:51:43.902Z,100614.78
2022-10-15T06:54:11.544Z,100633.50
2022-10-15T06:56:39.270Z,100609.25
2022-10-15T06:59:07.197Z,100621.69
2022-10-15T07:01:37.217Z,100629.09
2022-10-15T07:04:08.014Z,100627.69
2022-10-15T07:06:36.146Z,100609.91
2022-10-15T07:09:05.429Z,100618.44
2022-10-15T07:11:33.192Z,100602.47
2022-10-15T07:14:00.933Z,100613.78
2022-10-15T07:16:28.531Z,100591.69
2022-10-15T07:18:56.749Z,100596.03
2022-10-15T07:21:24.405Z,100568.09
2022-10-15T07:23:52.021Z,100612.50
2022-10-15T07:26:19.791Z,100616.38
2022-10-15T07:28:47.686Z,100612.50
2022-10-15T07:31:15.500Z,100572.94
2022-10-15T07:33:44.077Z,100557.94
2022-10-15T07:36:12.949Z,100610.22
2022-10-15T07:38:42.198Z,100578.28
2022-10-15T07:41:11.373Z,100606.50
2022-10-15T07:43:44.087Z,100615.22
2022-10-15T07:46:11.836Z,100614.88
2022-10-15T07:48:39.641Z,100582.47
2022-10-15T07:51:07.773Z,100629.59
2022-10-15T07:53:35.737Z,100616.69
2022-10-15T07:56:07.956Z,100609.25
2022-10-15T07:58:38.201Z,100626.16
2022-10-15T08:01:07.723Z,100614.88
2022-10-15T08:03:36.698Z,100622.31
2022-10-15T08:06:07.826Z,100632.47
2022-10-15T08:08:36.936Z,100626.69
2022-10-15T08:11:13.005Z,100629.13
2022-10-15T08:13:42.375Z,100629.94
2022-10-15T08:16:11.835Z,100643.78
2022-10-15T08:18:40.259Z,100638.63
2022-10-15T08:21:10.428Z,100646.06
2022-10-15T08:23:39.234Z,100637.81
2022-10-15T08:26:07.206Z,100591.03
2022-10-15T08:28:36.034Z,100636.03
2022-10-15T08:31:05.795Z,100624.91
2022-10-15T08:33:36.054Z,100587.13
2022-10-15T08:36:08.196Z,100637.47
2022-10-15T08:38:36.282Z,100585.88
2022-10-15T08:41:16.025Z,100617.34
2022-10-15T08:43:46.484Z,100599.25
2022-10-15T08:46:24.104Z,100609.41
2022-10-15T08:48:58.419Z,100623.63
2022-10-15T08:51:34.653Z,100572.81
2022-10-15T08:54:05.095Z,100626.84
2022-10-15T08:56:43.529Z,100625.22
2022-10-15T08:59:38.629Z,100621.00
2022-10-15T09:02:28.251Z,100626.16
2022-10-15T09:04:55.950Z,100614.41
2022-10-15T09:07:44.438Z,100620.69
2022-10-15T09:10:43.224Z,100620.38
2022-10-15T09:13:28.441Z,100628.63
2022-10-15T09:16:01.620Z,100632.00
2022-10-15T09:18:33.862Z,100617.00
2022-10-15T09:21:04.706Z,100620.22
2022-10-15T09:23:33.883Z,100600.22
2022-10-15T09:26:07.887Z,100618.13
2022-10-15T09:29:07.316Z,100606.16
2022-10-15T09:31:53.364Z,100621.50
2022-10-15T09:34:39.866Z,100612.63
2022-10-15T09:37:19.721Z,100611.84
2022-10-15T09:40:16.414Z,100623.13
2022-10-15T09:42:45.172Z,100568.25
2022-10-15T09:45:15.951Z,100627.16
2022-10-15T09:47:44.969Z,100606.97
2022-10-15T09:50:15.015Z,100581.00
2022-10-15T09:53:00.459Z,100555.69
2022-10-15T09:55:50.502Z,100606.00
2022-10-15T09:58:43.349Z,100623.09
2022-10-15T10:01:20.356Z,100618.72
2022-10-15T10:04:12.192Z,100552.59
2022-10-15T10:07:04.853Z,100616.66
2022-10-15T10:09:36.509Z,100621.19
2022-10-15T10:12:07.829Z,100617.94
2022-10-15T10:14:40.368Z,100617.00
2022-10-15T10:17:22.631Z,100623.63
2022-10-15T10:20:18.820Z,100615.22
2022-10-15T10:22:54.862Z,100566.81
2022-10-15T10:25:43.131Z,100617.13
2022-10-15T10:28:11.768Z,100618.44
2022-10-15T10:30:57.898Z,100622.47
2022-10-15T10:33:50.294Z,100620.22
2022-10-15T10:36:28.722Z,100578.75
2022-10-15T10:39:14.485Z,100617.81
2022-10-15T10:41:58.847Z,100558.56
2022-10-15T10:44:39.750Z,100619.72
2022-10-15T10:47:11.127Z,100622.31
2022-10-15T10:49:46.418Z,100524.03
2022-10-15T10:52:34.766Z,100612.91
2022-10-15T10:55:06.613Z,100538.69
2022-10-15T10:57:46.947Z,100614.00
2022-10-15T11:00:23.071Z,100587.03
2022-10-15T11:02:52.609Z,100568.78
2022-10-15T11:05:26.611Z,100549.41
2022-10-15T11:08:00.361Z,100595.97
2022-10-15T11:10:57.688Z,100543.75
2022-10-15T11:13:44.135Z,100591.44
2022-10-15T11:16:27.784Z,100567.06
2022-10-15T11:19:50.487Z,100589.63
2022-10-15T11:22:21.181Z,100586.53
2022-10-15T11:25:21.345Z,100585.13
2022-10-15T11:28:28.386Z,100509.03
2022-10-15T11:31:19.583Z,100577.84
2022-10-15T11:34:11.091Z,100584.63
2022-10-15T11:37:12.021Z,100557.03
2022-10-15T11:39:39.798Z,100416.56
2022-10-15T11:42:38.361Z,100566.72
2022-10-15T11:45:15.981Z,100570.56
2022-10-15T11:48:08.886Z,100568.59
2022-10-15T11:50:52.604Z,100564.72
2022-10-15T11:53:50.790Z,100563.56
2022-10-15T11:56:40.615Z,100555.66
2022-10-15T11:59:38.058Z,100559.22
2022-10-15T12:02:15.798Z,100502.13
2022-10-15T12:04:56.460Z,100522.13
2022-10-15T12:07:29.048Z,100533.06
2022-10-15T12:10:09.328Z,100505.09
2022-10-15T12:13:14.088Z,100533.16
2022-10-15T12:15:45.749Z,100464.78
2022-10-15T12:18:21.538Z,100521.59
2022-10-15T12:20:50.825Z,100496.41
2022-10-15T12:23:37.087Z,100501.50
2022-10-15T12:26:28.602Z,100501.97
2022-10-15T12:29:02.279Z,100498.06
2022-10-15T12:31:56.509Z,100430.47
2022-10-15T12:34:41.212Z,100464.75
2022-10-15T12:37:19.765Z,100487.88
2022-10-15T12:40:14.584Z,100496.47
2022-10-15T12:42:43.430Z,100466.28
2022-10-15T12:45:25.314Z,100466.22
2022-10-15T12:48:14.283Z,100470.25
2022-10-15T12:50:43.906Z,100447.41
2022-10-15T12:53:29.872Z,100470.75
2022-10-15T12:56:09.679Z,100464.44
2022-10-15T12:58:46.892Z,100458.13
2022-10-15T13:01:14.561Z,100446.34
2022-10-15T13:03:51.446Z,100442.44
2022-10-15T13:06:22.395Z,100433.88
2022-10-15T13:09:11.866Z,100425.63
2022-10-15T13:11:48.688Z,100419.78
2022-10-15T13:14:31.564Z,100426.06
2022-10-15T13:17:03.441Z,100420.25
2022-10-15T13:19:39.907Z,100336.63
2022-10-15T13:22:21.618Z,100419.44
2022-10-15T13:24:49.419Z,100414.75
2022-10-15T13:27:37.816Z,100400.53
2022-10-15T13:30:12.803Z,100407.88
2022-10-15T13:32:51.432Z,100399.81
2022-10-15T13:35:45.803Z,100408.09
2022-10-15T13:38:23.875Z,100404.88
2022-10-15T13:40:54.167Z,100398.25
2022-10-15T13:43:26.539Z,100385.88
2022-10-15T13:45:56.649Z,100397.78
2022-10-15T13:48:29.931Z,100358.06
2022-10-15T13:51:00.226Z,100393.25
2022-10-15T13:53:30.394Z,100395.50
2022-10-15T13:56:01.292Z,100372.13
2022-10-15T13:58:31.456Z,100365.69
2022-10-15T14:01:25.601Z,100388.53
2022-10-15T14:03:55.546Z,100387.75
2022-10-15T14:06:28.565Z,100360.38
2022-10-15T14:09:27.302Z,100390.94
2022-10-15T14:11:59.096Z,100392.56
2022-10-15T14:14:41.745Z,100390.16
2022-10-15T14:17:17.602Z,100376.00
2022-10-15T14:20:26.873Z,100374.19
2022-10-15T14:22:55.537Z,100359.38
2022-10-15T14:25:25.401Z,100379.69
2022-10-15T14:27:53.251Z,100361.34
2022-10-15T14:30:32.198Z,100365.69
2022-10-15T14:32:59.834Z,100340.97
2022-10-15T14:35:38.177Z,100374.19
2022-10-15T14:38:15.497Z,100381.41
2022-10-15T14:41:07.370Z,100360.38
2022-10-15T14:43:37.124Z,100319.41
2022-10-15T14:46:08.597Z,100358.78
2022-10-15T14:48:38.995Z,100382.78
2022-10-15T14:51:12.414Z,100376.47
2022-10-15T14:53:45.850Z,100397.09
2022-10-15T14:56:26.529Z,100384.25
2022-10-15T14:58:59.657Z,100335.22
2022-10-15T15:01:28.248Z,100348.22
2022-10-15T15:03:57.868Z,100370.56
2022-10-15T15:06:25.639Z,100382.50
2022-10-15T15:08:53.420Z,100352.75
2022-10-15T15:11:24.260Z,100371.94
2022-10-15T15:13:52.635Z,100381.09
2022-10-15T15:16:20.362Z,100372.06
2022-10-15T15:18:48.918Z,100380.91
2022-10-15T15:21:22.571Z,100387.88
2022-10-15T15:23:51.469Z,100333.19
2022-10-15T15:26:23.646Z,100374.00
2022-10-15T15:28:51.516Z,100361.34
2022-10-15T15:31:19.195Z,100364.41
2022-10-15T15:33:47.096Z,100366.97
2022-10-15T15:36:23.314Z,100346.88
2022-10-15T15:38:51.868Z,100373.41
2022-10-15T15:41:22.381Z,100357.31
2022-10-15T15:43:50.665Z,100351.38
2022-10-15T15:46:18.736Z,100375.00
2022-10-15T15:48:46.744Z,100283.06
2022-10-15T15:51:25.363Z,100351.72
2022-10-15T15:53:53.563Z,100376.47
2022-10-15T15:56:21.622Z,100344.13
2022-10-15T15:58:50.456Z,100334.34
2022-10-15T16:01:19.732Z,100361.59
2022-10-15T16:03:47.492Z,100363.53
2022-10-15T16:06:15.070Z,100350.06
2022-10-15T16:08:42.753Z,100336.84
2022-10-15T16:11:10.466Z,100352.75
2022-10-15T16:13:38.583Z,100305.31
2022-10-15T16:16:06.336Z,100374.63
2022-10-15T16:18:33.955Z,100322.50
2022-10-15T16:21:01.817Z,100359.47
2022-10-15T16:23:29.490Z,100362.91
2022-10-15T16:26:00.115Z,100384.66
2022-10-15T16:28:27.882Z,100333.19
2022-10-15T16:30:55.583Z,100355.56
2022-10-15T16:33:23.261Z,100368.78
2022-10-15T16:35:52.946Z,100323.09
2022-10-15T16:38:20.613Z,100369.25
2022-10-15T16:40:48.506Z,100370.38
2022-10-15T16:43:19.114Z,100353.38
2022-10-15T16:45:57.501Z,100340.19
2022-10-15T16:48:26.524Z,100374.06
2022-10-15T16:51:02.225Z,100335.50
2022-10-15T16:53:31.977Z,100381.84
2022-10-15T16:56:21.142Z,100349.94
2022-10-15T16:58:50.254Z,100375.88
2022-10-15T17:01:24.400Z,100369.91
2022-10-15T17:03:52.443Z,100287.09
2022-10-15T17:06:24.892Z,100368.50
2022-10-15T17:08:58.039Z,100380.78
2022-10-15T17:11:40.268Z,100356.50
2022-10-15T17:14:11.229Z,100379.97
2022-10-15T17:16:51.771Z,100339.72
2022-10-15T17:19:23.733Z,100325.59
2022-10-15T17:21:52.482Z,100382.25
2022-10-15T17:24:20.163Z,100382.72
2022-10-15T17:26:49.884Z,100386.28
2022-10-15T17:29:20.782Z,100392.56
2022-10-15T17:31:50.138Z,100345.88
2022-10-15T17:34:18.567Z,100379.72
2022-10-15T17:36:48.614Z,100389.50
2022-10-15T17:39:22.470Z,100408.19
2022-10-15T17:41:51.896Z,100397.41
2022-10-15T17:44:20.407Z,100406.25
2022-10-15T17:49:18.855Z,100353.28
2022-10-15T17:51:47.619Z,100372.13
2022-10-15T17:54:15.901Z,100372.91
2022-10-15T17:56:43.578Z,100399.94
2022-10-15T17:59:12.909Z,100409.34
2022-10-15T18:01:59.697Z,100423.00
2022-10-15T18:04:28.654Z,100426.91
2022-10-15T18:06:56.247Z,100410.66
2022-10-15T18:09:27.754Z,100430.75
2022-10-15T18:12:01.673Z,100443.03
2022-10-15T18:14:32.216Z,100407.97
2022-10-15T18:17:00.168Z,100394.00
2022-10-15T18:19:28.310Z,100388.16
2022-10-15T18:21:56.575Z,100440.16
2022-10-15T18:24:24.685Z,100412.53
2022-10-15T18:26:53.264Z,100445.63
2022-10-15T18:29:22.649Z,100452.75
2022-10-15T18:31:54.984Z,100436.53
2022-10-15T18:34:25.171Z,100452.63
2022-10-15T18:36:52.868Z,100453.88
2022-10-15T18:39:24.188Z,100430.25
2022-10-15T18:41:51.924Z,100431.84
2022-10-15T18:44:21.872Z,100452.75
2022-10-15T18:46:50.200Z,100434.53
2022-10-15T18:49:19.819Z,100445.91
2022-10-15T18:51:51.882Z,100434.66
2022-10-15T18:54:21.271Z,100446.25
2022-10-15T18:56:49.430Z,100425.72
2022-10-15T18:59:20.371Z,100444.09
2022-10-15T19:01:49.805Z,100405.63
2022-10-15T19:04:18.965Z,100470.06
2022-10-15T19:06:49.141Z,100437.41
2022-10-15T19:09:19.019Z,100470.38
2022-10-15T19:11:49.753Z,100474.25
2022-10-15T19:14:18.144Z,100477.81
2022-10-15T19:16:47.386Z,100445.16
2022-10-15T19:19:18.132Z,100486.41
2022-10-15T19:21:46.926Z,100478.50
2022-10-15T19:24:16.981Z,100483.81
2022-10-15T19:26:45.247Z,100479.47
2022-10-15T19:29:13.441Z,100490.81
2022-10-15T19:31:44.360Z,100479.00
2022-10-15T19:34:13.357Z,100485.50
2022-10-15T19:36:46.930Z,100434.75
2022-10-15T19:39:23.026Z,100486.63
2022-10-15T19:41:52.323Z,100489.72
2022-10-15T19:44:27.894Z,100490.53
2022-10-15T19:46:56.084Z,100463.31
2022-10-15T19:49:25.974Z,100499.03
2022-10-15T19:51:54.055Z,100495.16
2022-10-15T19:54:22.081Z,100505.00
2022-10-15T19:56:49.793Z,100490.72
2022-10-15T19:59:17.426Z,100482.00
2022-10-15T20:01:46.570Z,100501.03
2022-10-15T20:04:14.870Z,100517.34
2022-10-15T20:06:43.838Z,100514.91
2022-10-15T20:09:11.433Z,100525.09
2022-10-15T20:11:39.573Z,100462.25
2022-10-15T20:14:07.125Z,100489.94
2022-10-15T20:16:34.773Z,100479.00
2022-10-15T20:19:04.716Z,100527.38
2022-10-15T20:21:34.041Z,100483.03
2022-10-15T20:24:05.269Z,100492.88
2022-10-15T20:26:33.429Z,100523.66
2022-10-15T20:29:01.421Z,100470.44
2022-10-15T20:31:33.190Z,100506.91
2022-10-15T20:34:02.381Z,100444.22
2022-10-15T20:36:30.798Z,100511.56
2022-10-15T20:38:59.855Z,100538.59
2022-10-15T20:41:28.457Z,100517.81
2022-10-15T20:43:57.083Z,100545.19
2022-10-15T20:46:34.499Z,100535.84
2022-10-15T20:49:09.272Z,100531.16
2022-10-15T20:51:40.468Z,100515.72
2022-10-15T20:54:08.329Z,100542.84
2022-10-15T20:56:36.047Z,100506.25
2022-10-15T20:59:05.250Z,100550.88
2022-10-15T21:01:34.922Z,100523.47
2022-10-15T21:04:03.099Z,100494.47
2022-10-15T21:06:31.030Z,100506.59
2022-10-15T21:08:58.944Z,100502.25
2022-10-15T21:11:26.588Z,100485.19
2022-10-15T21:13:54.466Z,100536.75
2022-10-15T21:16:24.588Z,100554.97
2022-10-15T21:18:56.243Z,100555.28
2022-10-15T21:21:24.076Z,100475.50
2022-10-15T21:23:51.841Z,100552.84
2022-10-15T21:26:21.861Z,100558.69
2022-10-15T21:28:56.542Z,100535.53
2022-10-15T21:31:25.343Z,100568.41
2022-10-15T21:33:55.571Z,100532.13
2022-10-15T21:36:27.100Z,100486.53
2022-10-15T21:38:57.565Z,100578.44
2022-10-15T21:41:27.737Z,100572.59
2022-10-15T21:43:55.461Z,100563.25
2022-10-15T21:46:24.491Z,100572.34
2022-10-15T21:48:53.909Z,100581.34
2022-10-15T21:51:27.962Z,100584.38
2022-10-15T21:53:57.848Z,100548.44
2022-10-15T21:56:26.433Z,100587.13
2022-10-15T21:58:55.403Z,100591.03
2022-10-15T22:01:25.408Z,100587.47
2022-10-15T22:03:57.531Z,100527.66
2022-10-15T22:06:25.829Z,100564.28
2022-10-15T22:08:53.857Z,100596.06
2022-10-15T22:11:30.919Z,100577.50
2022-10-15T22:14:05.165Z,100536.53
2022-10-15T22:16:35.996Z,100584.25
2022-10-15T22:19:04.597Z,100525.25
2022-10-15T22:21:36.393Z,100575.41
2022-10-15T22:24:12.450Z,100548.78
2022-10-15T22:26:43.930Z,100584.28
2022-10-15T22:29:23.997Z,100548.16
2022-10-15T22:31:52.099Z,100560.56
2022-10-15T22:34:25.402Z,100554.59
2022-10-15T22:36:53.123Z,100557.50
2022-10-15T22:39:20.792Z,100565.72
2022-10-15T22:41:49.070Z,100589.47
2022-10-15T22:44:21.050Z,100604.75
2022-10-15T22:46:49.879Z,100561.56
2022-10-15T22:49:20.585Z,100556.56
2022-10-15T22:51:49.726Z,100572.50
2022-10-15T22:54:19.801Z,100592.66
2022-10-15T22:56:48.034Z,100583.81
2022-10-15T22:59:16.099Z,100582.53
2022-10-15T23:01:45.465Z,100537.72
2022-10-15T23:04:15.834Z,100611.41
2022-10-15T23:06:44.307Z,100582.34
2022-10-15T23:09:18.068Z,100569.47
2022-10-15T23:11:46.648Z,100603.19
2022-10-15T23:14:15.876Z,100602.69
2022-10-15T23:16:46.534Z,100609.31
2022-10-15T23:19:17.602Z,100606.56
2022-10-15T23:21:56.649Z,100606.56
2022-10-15T23:24:26.973Z,100589.97
2022-10-15T23:26:55.139Z,100603.34
2022-10-15T23:29:25.136Z,100608.84
2022-10-15T23:31:53.116Z,100583.66
2022-10-15T23:34:23.862Z,100600.28
2022-10-15T23:36:52.466Z,100596.38
2022-10-15T23:39:25.708Z,100589.75
2022-10-15T23:41:54.845Z,100565.41
2022-10-15T23:44:25.674Z,100538.63
2022-10-15T23:46:53.627Z,100574.13
2022-10-15T23:49:21.327Z,100553.28
2022-10-15T23:51:49.142Z,100567.81
2022-10-15T23:54:18.384Z,100565.06
2022-10-15T23:56:47.216Z,100556.19
2022-10-15T23:59:16.755Z,100584.59
